createdAt,value
2024-02-24T00:03:20.672Z,9.80
2024-02-24T00:08:25.103Z,9.90
2024-02-24T00:13:29.368Z,9.80
2024-02-24T00:18:32.328Z,9.50
2024-02-24T00:23:35.377Z,9.50
2024-02-24T00:28:39.649Z,9.20
2024-02-24T00:33:43.497Z,8.90
2024-02-24T00:38:47.645Z,8.30
2024-02-24T00:43:53.388Z,8.00
2024-02-24T00:48:56.303Z,8.10
2024-02-24T00:53:59.177Z,8.10
2024-02-24T00:59:03.576Z,8.10
2024-02-24T01:04:06.774Z,7.90
2024-02-24T01:09:09.699Z,7.90
2024-02-24T01:14:14.098Z,7.90
2024-02-24T01:19:17.610Z,8.10
2024-02-24T01:24:20.694Z,8.20
2024-02-24T01:29:24.992Z,8.20
2024-02-24T01:34:28.052Z,8.20
2024-02-24T01:39:32.424Z,8.20
2024-02-24T01:44:36.689Z,8.20
2024-02-24T01:49:40.805Z,8.20
2024-02-24T01:54:44.392Z,8.30
2024-02-24T01:59:48.696Z,8.30
2024-02-24T02:04:51.721Z,8.20
2024-02-24T02:09:56.463Z,8.10
2024-02-24T02:15:00.823Z,8.30
2024-02-24T02:20:05.634Z,8.30
2024-02-24T02:25:12.161Z,8.20
2024-02-24T02:30:15.337Z,8.20
2024-02-24T02:35:18.724Z,8.30
2024-02-24T02:40:22.981Z,8.20
2024-02-24T02:45:25.885Z,8.20
2024-02-24T02:50:28.819Z,8.20
2024-02-24T02:55:33.616Z,8.20
2024-02-24T03:00:36.687Z,8.20
2024-02-24T03:05:39.754Z,8.30
2024-02-24T03:10:44.187Z,8.10
2024-02-24T03:15:47.060Z,8.10
2024-02-24T03:20:50.230Z,8.00
2024-02-24T03:25:54.628Z,8.10
2024-02-24T03:30:57.542Z,8.10
2024-02-24T03:36:00.697Z,8.30
2024-02-24T03:41:05.154Z,8.10
2024-02-24T03:46:08.635Z,8.20
2024-02-24T03:51:11.585Z,8.20
2024-02-24T03:56:15.968Z,8.10
2024-02-24T04:01:18.977Z,8.10
2024-02-24T04:06:22.050Z,8.10
2024-02-24T04:11:26.393Z,8.20
2024-02-24T04:16:29.377Z,8.10
2024-02-24T04:21:32.328Z,8.10
2024-02-24T04:26:36.681Z,8.20
2024-02-24T04:31:39.793Z,8.20
2024-02-24T04:36:43.302Z,8.30
2024-02-24T04:41:47.947Z,8.30
2024-02-24T04:46:50.955Z,8.30
2024-02-24T04:51:54.006Z,8.30
2024-02-24T04:56:58.587Z,8.40
2024-02-24T05:02:01.627Z,8.40
2024-02-24T05:07:04.977Z,8.50
2024-02-24T05:12:09.711Z,8.50
2024-02-24T05:17:13.484Z,8.50
2024-02-24T05:22:16.615Z,8.50
2024-02-24T05:27:21.071Z,8.60
2024-02-24T05:32:24.267Z,8.50
2024-02-24T05:37:27.288Z,8.50
2024-02-24T05:42:31.669Z,8.50
2024-02-24T05:47:35.082Z,8.50
2024-02-24T05:52:38.275Z,8.40
2024-02-24T05:57:46.117Z,8.40
2024-02-24T06:02:49.410Z,8.30
2024-02-24T06:07:53.242Z,8.30
2024-02-24T06:12:57.998Z,8.20
2024-02-24T06:18:01.184Z,8.10
2024-02-24T06:23:04.556Z,8.20
2024-02-24T06:28:11.958Z,8.10
2024-02-24T06:33:15.161Z,8.20
2024-02-24T06:38:19.516Z,8.20
2024-02-24T06:43:24.395Z,8.20
2024-02-24T06:48:27.717Z,8.30
2024-02-24T06:53:30.859Z,8.30
2024-02-24T06:58:36.134Z,8.20
2024-02-24T07:03:39.390Z,8.20
2024-02-24T07:08:42.478Z,8.30
2024-02-24T07:13:46.938Z,8.40
2024-02-24T07:18:50.164Z,8.50
2024-02-24T07:23:53.679Z,8.50
2024-02-24T07:28:58.107Z,8.40
2024-02-24T07:34:01.318Z,8.40
2024-02-24T07:39:06.061Z,8.40
2024-02-24T07:44:10.634Z,8.30
2024-02-24T07:49:14.956Z,8.40
2024-02-24T07:54:18.135Z,8.30
2024-02-24T07:59:22.674Z,8.40
2024-02-24T08:04:25.615Z,8.50
2024-02-24T08:09:28.663Z,8.50
2024-02-24T08:14:33.739Z,8.50
2024-02-24T08:19:37.146Z,8.50
2024-02-24T08:24:40.195Z,8.30
2024-02-24T08:29:44.535Z,8.00
2024-02-24T08:34:47.744Z,7.90
2024-02-24T08:39:51.576Z,7.90
2024-02-24T08:45:00.259Z,8.20
2024-02-24T08:50:05.172Z,8.50
2024-02-24T08:55:09.111Z,8.80
2024-02-24T09:00:14.861Z,9.00
2024-02-24T09:05:18.415Z,9.10
2024-02-24T09:10:21.587Z,9.30
2024-02-24T09:15:27.933Z,9.40
2024-02-24T09:20:37.822Z,9.50
2024-02-24T09:25:40.936Z,9.50
2024-02-24T09:30:45.776Z,10.00
2024-02-24T09:35:49.059Z,10.20
2024-02-24T09:40:52.149Z,10.20
2024-02-24T09:45:57.612Z,10.20
2024-02-24T09:51:09.117Z,10.30
2024-02-24T09:56:14.886Z,10.30
2024-02-24T10:01:20.432Z,10.50
2024-02-24T10:06:23.550Z,10.30
2024-02-24T10:11:28.539Z,10.50
2024-02-24T10:17:02.937Z,10.60
2024-02-24T10:22:25.701Z,10.40
2024-02-24T10:27:38.144Z,10.40
2024-02-24T10:32:55.462Z,10.20
2024-02-24T10:38:11.601Z,10.30
2024-02-24T10:43:25.031Z,10.50
2024-02-24T10:48:35.210Z,10.50
2024-02-24T10:53:51.475Z,10.60
2024-02-24T11:35:01.711Z,11.00
2024-02-24T11:40:06.352Z,10.70
2024-02-24T11:45:11.621Z,10.50
2024-02-24T11:50:22.042Z,10.40
2024-02-24T11:55:27.593Z,10.40
2024-02-24T12:00:30.898Z,10.50
2024-02-24T12:58:14.882Z,10.20
2024-02-24T13:04:13.397Z,10.60
2024-02-24T13:09:23.720Z,10.80
2024-02-24T13:14:27.211Z,10.80
2024-02-24T13:19:55.758Z,11.00
2024-02-24T13:24:59.114Z,11.00
2024-02-24T13:30:02.295Z,11.10
2024-02-24T13:35:07.496Z,10.90
2024-02-24T13:40:11.294Z,11.00
2024-02-24T13:45:14.333Z,11.10
2024-02-24T13:50:21.118Z,11.10
2024-02-24T13:55:25.965Z,11.20
2024-02-24T14:00:28.999Z,11.30
2024-02-24T14:05:34.572Z,11.50
2024-02-24T14:10:37.726Z,11.60
2024-02-24T14:15:42.506Z,11.40
2024-02-24T14:20:46.908Z,11.40
2024-02-24T14:25:50.281Z,11.30
2024-02-24T14:30:55.862Z,11.40
2024-02-24T14:36:00.933Z,11.30
2024-02-24T14:41:04.019Z,11.30
2024-02-24T14:46:07.603Z,11.50
2024-02-24T14:51:12.019Z,11.50
2024-02-24T14:56:15.229Z,11.40
2024-02-24T15:01:18.346Z,11.60
2024-02-24T15:06:22.848Z,11.70
2024-02-24T15:11:25.953Z,11.80
2024-02-24T15:16:29.034Z,11.60
2024-02-24T15:21:33.341Z,11.70
2024-02-24T15:26:36.346Z,11.70
2024-02-24T15:31:40.486Z,11.70
2024-02-24T15:36:45.501Z,11.80
2024-02-24T15:41:48.545Z,11.90
2024-02-24T15:46:54.360Z,11.70
2024-02-24T15:51:59.574Z,11.70
2024-02-24T15:57:02.928Z,11.80
2024-02-24T16:02:06.799Z,11.60
2024-02-24T16:07:14.308Z,11.50
2024-02-24T16:12:18.323Z,11.50
2024-02-24T16:17:23.618Z,11.40
2024-02-24T16:22:28.517Z,11.40
2024-02-24T16:27:37.697Z,11.30
2024-02-24T16:32:40.997Z,11.20
2024-02-24T16:37:45.610Z,11.20
2024-02-24T16:42:48.622Z,11.10
2024-02-24T16:47:51.617Z,11.00
2024-02-24T16:52:56.335Z,11.10
2024-02-24T16:57:59.334Z,10.90
2024-02-24T17:03:02.347Z,11.00
2024-02-24T17:08:07.177Z,11.00
2024-02-24T17:13:11.133Z,10.90
2024-02-24T17:18:18.620Z,11.00
2024-02-24T17:23:28.010Z,11.00
2024-02-24T17:28:30.979Z,10.90
2024-02-24T17:33:34.008Z,10.80
2024-02-24T17:38:38.552Z,10.70
2024-02-24T17:43:42.958Z,10.60
2024-02-24T17:48:47.912Z,10.50
2024-02-24T17:53:52.418Z,10.60
2024-02-24T17:58:55.377Z,10.50
2024-02-24T18:03:59.504Z,10.50
2024-02-24T18:09:04.155Z,10.30
2024-02-24T18:14:07.156Z,10.40
2024-02-24T18:19:10.755Z,10.30
2024-02-24T18:24:15.295Z,10.20
2024-02-24T18:29:18.457Z,10.30
2024-02-24T18:34:21.757Z,10.30
2024-02-24T18:39:26.582Z,10.20
2024-02-24T18:44:29.729Z,10.10
2024-02-24T18:49:32.802Z,10.20
2024-02-24T18:54:37.213Z,10.20
2024-02-24T18:59:43.407Z,10.00
2024-02-24T19:04:47.938Z,10.10
2024-02-24T19:09:52.356Z,10.10
2024-02-24T19:14:57.986Z,10.10
2024-02-24T19:20:01.493Z,10.00
2024-02-24T19:25:06.482Z,9.90
2024-02-24T19:30:10.589Z,9.90
2024-02-24T19:35:13.616Z,9.80
2024-02-24T19:40:18.372Z,9.70
2024-02-24T19:45:21.479Z,9.70
2024-02-24T19:50:24.474Z,9.70
2024-02-24T19:55:28.949Z,9.70
2024-02-24T20:00:31.880Z,9.70
2024-02-24T20:05:34.958Z,9.70
2024-02-24T20:10:39.217Z,9.70
2024-02-24T20:15:42.285Z,9.70
2024-02-24T20:20:45.309Z,9.70
2024-02-24T20:25:52.697Z,9.70
2024-02-24T20:30:55.633Z,9.70
2024-02-24T20:35:58.750Z,9.60
2024-02-24T20:41:04.208Z,9.60
2024-02-24T20:46:07.075Z,9.60
2024-02-24T20:51:10.075Z,9.60
2024-02-24T20:56:14.277Z,9.60
2024-02-24T21:01:17.206Z,9.60
2024-02-24T21:06:20.204Z,9.60
2024-02-24T21:11:24.725Z,9.60
2024-02-24T21:16:27.733Z,9.60
2024-02-24T21:21:30.660Z,9.50
2024-02-24T21:26:35.037Z,9.50
2024-02-24T21:31:38.001Z,9.50
2024-02-24T21:36:41.282Z,9.50
2024-02-24T21:41:45.640Z,9.40
2024-02-24T21:46:48.537Z,9.50
2024-02-24T21:51:51.423Z,9.50
2024-02-24T21:56:57.819Z,9.40
2024-02-24T22:02:00.728Z,9.30
2024-02-24T22:07:05.892Z,9.40
2024-02-24T22:12:10.494Z,9.40
2024-02-24T22:17:14.703Z,9.40
2024-02-24T22:22:17.914Z,9.40
2024-02-24T22:27:22.456Z,9.40
2024-02-24T22:32:25.497Z,9.50
2024-02-24T22:37:29.322Z,9.40
2024-02-24T22:42:34.542Z,9.40
2024-02-24T22:47:37.655Z,9.40
2024-02-24T22:52:40.631Z,9.40
2024-02-24T22:57:44.891Z,9.50
2024-02-24T23:02:47.967Z,9.40
2024-02-24T23:07:51.207Z,9.50
2024-02-24T23:12:55.462Z,9.60
2024-02-24T23:17:58.707Z,9.40
2024-02-24T23:23:01.851Z,9.40
2024-02-24T23:28:08.133Z,9.40
2024-02-24T23:33:11.182Z,9.40
2024-02-24T23:38:14.796Z,9.40
2024-02-24T23:43:19.099Z,9.30
2024-02-24T23:48:22.492Z,9.40
2024-02-24T23:53:25.601Z,9.30
2024-02-24T23:58:29.848Z,9.40
